createdAt,value
2023-03-28T00:02:41.295Z,99453.69
2023-03-28T00:05:45.640Z,99452.03
2023-03-28T00:08:49.981Z,99464.25
2023-03-28T00:11:53.424Z,99470.69
2023-03-28T00:14:57.657Z,99484.91
2023-03-28T00:18:01.140Z,99477.91
2023-03-28T00:21:08.058Z,99483.22
2023-03-28T00:24:13.851Z,99486.12
2023-03-28T00:27:17.874Z,99468.75
2023-03-28T00:30:21.900Z,99497.50
2023-03-28T00:33:24.837Z,99496.47
2023-03-28T00:36:29.395Z,99480.75
2023-03-28T00:39:32.507Z,99469.56
2023-03-28T00:42:35.593Z,99478.62
2023-03-28T00:45:38.283Z,99484.25
2023-03-28T00:48:49.038Z,99465.81
2023-03-28T00:52:04.688Z,99475.37
2023-03-28T00:55:12.530Z,99471.41
2023-03-28T00:58:20.053Z,99495.16
2023-03-28T01:01:23.632Z,99490.84
2023-03-28T01:04:36.353Z,99482.53
2023-03-28T01:07:46.805Z,99504.91
2023-03-28T01:10:51.416Z,99501.22
2023-03-28T01:13:56.039Z,99499.97
2023-03-28T01:17:01.725Z,99506.03
2023-03-28T01:20:30.340Z,99504.53
2023-03-28T01:23:48.094Z,99513.22
2023-03-28T01:26:56.938Z,99507.19
2023-03-28T01:30:45.284Z,99516.59
2023-03-28T01:34:01.246Z,99519.31
2023-03-28T01:37:06.533Z,99529.19
2023-03-28T01:40:34.613Z,99534.72
2023-03-28T01:44:18.871Z,99536.53
2023-03-28T01:47:32.390Z,99541.31
2023-03-28T01:50:56.608Z,99543.31
2023-03-28T01:54:20.726Z,99552.06
2023-03-28T01:57:46.390Z,99551.91
2023-03-28T02:00:59.251Z,99559.87
2023-03-28T02:04:20.754Z,99562.25
2023-03-28T02:07:25.784Z,99569.69
2023-03-28T02:10:32.977Z,99575.06
2023-03-28T02:13:45.055Z,99567.63
2023-03-28T02:16:52.320Z,99561.81
2023-03-28T02:20:00.847Z,99573.75
2023-03-28T02:23:13.949Z,99587.19
2023-03-28T02:26:20.247Z,99598.31
2023-03-28T02:29:23.982Z,99594.22
2023-03-28T02:32:27.000Z,99587.19
2023-03-28T02:35:47.292Z,99586.34
2023-03-28T02:39:18.119Z,99583.63
2023-03-28T02:42:45.758Z,99594.03
2023-03-28T02:46:11.387Z,99601.00
2023-03-28T02:49:29.960Z,99610.84
2023-03-28T02:52:42.620Z,99608.66
2023-03-28T02:55:57.032Z,99614.69
2023-03-28T02:59:43.751Z,99622.94
2023-03-28T03:02:49.457Z,99622.97
2023-03-28T03:05:52.565Z,99630.13
2023-03-28T03:08:55.311Z,99621.66
2023-03-28T03:11:58.564Z,99623.03
2023-03-28T03:15:01.831Z,99629.16
2023-03-28T03:18:13.884Z,99618.22
2023-03-28T03:21:18.006Z,99632.75
2023-03-28T03:24:21.487Z,99635.63
2023-03-28T03:27:24.204Z,99641.81
2023-03-28T03:30:29.024Z,99638.44
2023-03-28T03:33:33.880Z,99642.69
2023-03-28T03:36:38.082Z,99634.53
2023-03-28T03:39:42.217Z,99643.13
2023-03-28T03:42:45.460Z,99662.75
2023-03-28T03:45:48.248Z,99650.22
2023-03-28T03:48:51.602Z,99667.16
2023-03-28T03:51:54.324Z,99672.78
2023-03-28T03:54:57.807Z,99673.69
2023-03-28T03:58:01.193Z,99677.56
2023-03-28T04:01:06.214Z,99676.91
2023-03-28T04:04:10.573Z,99678.06
2023-03-28T04:07:15.454Z,99690.38
2023-03-28T04:10:18.804Z,99673.37
2023-03-28T04:13:21.766Z,99685.66
2023-03-28T04:16:26.285Z,99694.50
2023-03-28T04:19:29.701Z,99692.28
2023-03-28T04:22:35.880Z,99708.16
2023-03-28T04:25:49.672Z,99702.22
2023-03-28T04:28:53.713Z,99705.75
2023-03-28T04:31:58.909Z,99706.50
2023-03-28T04:35:07.899Z,99716.16
2023-03-28T04:38:20.670Z,99717.56
2023-03-28T04:41:29.239Z,99714.81
2023-03-28T04:44:34.830Z,99723.19
2023-03-28T04:47:39.984Z,99737.66
2023-03-28T04:50:43.480Z,99734.59
2023-03-28T04:53:48.445Z,99731.25
2023-03-28T04:56:52.416Z,99730.72
2023-03-28T04:59:56.725Z,99733.84
2023-03-28T05:03:00.650Z,99744.47
2023-03-28T05:06:05.488Z,99749.75
2023-03-28T05:09:08.203Z,99755.13
2023-03-28T05:12:11.289Z,99770.59
2023-03-28T05:15:21.565Z,99763.19
2023-03-28T05:18:26.881Z,99773.44
2023-03-28T05:21:29.651Z,99767.41
2023-03-28T05:24:33.344Z,99769.84
2023-03-28T05:27:38.731Z,99769.59
2023-03-28T05:30:42.192Z,99777.53
2023-03-28T05:33:44.876Z,99781.69
2023-03-28T05:36:57.203Z,99769.72
2023-03-28T05:40:00.085Z,99791.28
2023-03-28T05:43:03.211Z,99788.50
2023-03-28T05:46:06.508Z,99798.03
2023-03-28T05:49:09.610Z,99796.47
2023-03-28T05:52:12.339Z,99786.16
2023-03-28T05:55:15.902Z,99792.56
2023-03-28T05:58:20.264Z,99793.03
2023-03-28T06:01:28.870Z,99796.19
2023-03-28T06:04:33.383Z,99796.34
2023-03-28T06:07:42.567Z,99797.91
2023-03-28T06:10:48.628Z,99798.72
2023-03-28T06:13:51.724Z,99791.66
2023-03-28T06:16:54.736Z,99798.13
2023-03-28T06:19:57.701Z,99801.50
2023-03-28T06:23:03.619Z,99792.44
2023-03-28T06:26:07.208Z,99781.53
2023-03-28T06:29:12.191Z,99795.72
2023-03-28T06:32:15.613Z,99798.91
2023-03-28T06:35:18.591Z,99790.19
2023-03-28T06:38:21.533Z,99796.06
2023-03-28T06:41:26.083Z,99804.66
2023-03-28T06:44:30.249Z,99802.19
2023-03-28T06:47:36.002Z,99821.25
2023-03-28T06:50:40.109Z,99813.38
2023-03-28T06:53:43.452Z,99817.25
2023-03-28T06:56:47.136Z,99823.66
2023-03-28T06:59:51.674Z,99815.88
2023-03-28T07:02:54.910Z,99806.59
2023-03-28T07:05:58.772Z,99799.56
2023-03-28T07:09:03.421Z,99816.72
2023-03-28T07:12:08.600Z,99795.94
2023-03-28T07:15:11.684Z,99800.00
2023-03-28T07:18:14.767Z,99812.28
2023-03-28T07:21:18.871Z,99807.59
2023-03-28T07:24:22.027Z,99795.00
2023-03-28T07:27:25.946Z,99803.16
2023-03-28T07:30:29.215Z,99801.66
2023-03-28T07:33:37.376Z,99793.69
2023-03-28T07:36:42.063Z,99798.16
2023-03-28T07:39:45.833Z,99804.28
2023-03-28T07:42:49.951Z,99805.88
2023-03-28T07:45:54.221Z,99798.16
2023-03-28T07:48:57.339Z,99812.44
2023-03-28T07:52:00.988Z,99812.25
2023-03-28T07:55:04.551Z,99816.13
2023-03-28T07:58:10.256Z,99835.03
2023-03-28T08:01:14.505Z,99821.84
2023-03-28T08:04:17.767Z,99824.75
2023-03-28T08:07:21.709Z,99833.53
2023-03-28T08:10:25.546Z,99833.84
2023-03-28T08:13:28.492Z,99835.03
2023-03-28T08:16:33.786Z,99831.66
2023-03-28T08:19:37.444Z,99833.00
2023-03-28T08:22:45.326Z,99853.16
2023-03-28T08:25:49.044Z,99842.94
2023-03-28T08:28:58.409Z,99847.84
2023-03-28T08:32:01.513Z,99867.06
2023-03-28T08:35:06.451Z,99853.31
2023-03-28T08:38:11.206Z,99869.56
2023-03-28T08:41:29.309Z,99874.44
2023-03-28T08:45:02.767Z,99874.94
2023-03-28T08:48:18.458Z,99865.13
2023-03-28T08:51:24.594Z,99875.78
2023-03-28T08:54:58.318Z,99872.72
2023-03-28T08:58:02.176Z,99869.47
2023-03-28T09:01:05.633Z,99877.16
2023-03-28T09:04:20.447Z,99879.25
2023-03-28T09:08:13.295Z,99883.22
2023-03-28T09:11:40.562Z,99882.13
2023-03-28T09:15:07.673Z,99882.28
2023-03-28T09:18:40.652Z,99882.94
2023-03-28T09:22:15.225Z,99895.00
2023-03-28T09:25:48.409Z,99911.72
2023-03-28T09:28:59.985Z,99911.53
2023-03-28T09:32:28.679Z,99907.19
2023-03-28T09:35:32.548Z,99902.81
2023-03-28T09:38:43.431Z,99901.47
2023-03-28T09:41:59.750Z,99878.66
2023-03-28T09:45:41.024Z,99894.41
2023-03-28T09:48:57.992Z,99884.53
2023-03-28T09:52:02.929Z,99895.16
2023-03-28T09:55:14.463Z,99886.69
2023-03-28T09:58:18.577Z,99867.81
2023-03-28T10:01:45.538Z,99863.28
2023-03-28T10:04:52.116Z,99861.41
2023-03-28T10:07:58.657Z,99844.00
2023-03-28T10:11:22.850Z,99877.00
2023-03-28T10:14:30.060Z,99878.22
2023-03-28T10:17:37.272Z,99869.47
2023-03-28T10:20:41.561Z,99844.41
2023-03-28T10:23:53.155Z,99853.59
2023-03-28T10:27:24.035Z,99854.91
2023-03-28T10:30:33.497Z,99916.72
2023-03-28T10:33:42.979Z,99939.72
2023-03-28T10:36:47.957Z,99912.50
2023-03-28T10:40:23.497Z,99929.31
2023-03-28T10:43:39.012Z,99933.41
2023-03-28T10:46:42.975Z,99930.00
2023-03-28T10:49:51.040Z,99910.88
2023-03-28T10:53:20.755Z,99911.25
2023-03-28T10:56:38.614Z,99919.63
2023-03-28T10:59:59.766Z,99921.03
2023-03-28T11:03:15.540Z,99893.28
2023-03-28T11:06:34.653Z,99897.22
2023-03-28T11:10:04.312Z,99889.03
2023-03-28T11:13:54.372Z,99875.44
2023-03-28T11:17:12.606Z,99899.25
2023-03-28T11:20:33.324Z,99921.31
2023-03-28T11:23:46.290Z,99991.94
2023-03-28T11:27:12.684Z,100023.37
2023-03-28T11:30:33.613Z,100033.84
2023-03-28T11:33:48.149Z,100040.50
2023-03-28T11:37:02.188Z,100030.25
2023-03-28T11:40:21.327Z,100007.91
2023-03-28T11:43:35.363Z,100004.00
2023-03-28T11:46:48.069Z,100005.66
2023-03-28T11:49:59.481Z,100015.31
2023-03-28T11:53:28.529Z,100014.06
2023-03-28T11:56:43.751Z,100004.84
2023-03-28T12:00:05.564Z,100002.66
2023-03-28T12:03:29.031Z,100009.50
2023-03-28T12:07:02.387Z,100002.31
2023-03-28T12:10:20.592Z,99995.69
2023-03-28T12:14:11.559Z,99987.44
2023-03-28T12:17:30.331Z,99986.59
2023-03-28T12:20:46.442Z,99987.00
2023-03-28T12:24:13.703Z,99994.37
2023-03-28T12:27:23.675Z,99984.91
2023-03-28T12:30:35.761Z,99987.91
2023-03-28T12:34:00.553Z,99982.47
2023-03-28T12:37:22.388Z,99956.44
2023-03-28T12:40:41.824Z,99963.13
2023-03-28T12:43:54.436Z,99972.47
2023-03-28T12:47:29.305Z,99957.34
2023-03-28T12:50:42.853Z,99956.31
2023-03-28T12:54:01.321Z,99962.81
2023-03-28T12:57:14.137Z,99932.69
2023-03-28T13:00:39.920Z,99941.75
2023-03-28T13:04:25.711Z,99951.25
2023-03-28T13:07:57.946Z,99954.22
2023-03-28T13:11:19.139Z,99940.84
2023-03-28T13:14:30.767Z,99946.94
2023-03-28T13:17:37.873Z,99948.91
2023-03-28T13:20:46.082Z,99936.12
2023-03-28T13:23:50.025Z,99964.38
2023-03-28T13:26:58.172Z,99964.84
2023-03-28T13:30:05.335Z,99931.87
2023-03-28T13:33:27.699Z,99948.03
2023-03-28T13:36:33.063Z,99947.34
2023-03-28T13:39:36.202Z,99950.41
2023-03-28T13:42:58.666Z,99965.22
2023-03-28T13:46:11.514Z,99971.94
2023-03-28T13:49:29.321Z,99966.16
2023-03-28T13:52:32.731Z,99946.78
2023-03-28T13:55:36.026Z,99969.31
2023-03-28T13:58:39.048Z,99959.28
2023-03-28T14:01:44.604Z,99974.62
2023-03-28T14:04:52.970Z,99974.00
2023-03-28T14:08:18.815Z,100000.13
2023-03-28T14:11:26.328Z,99990.94
2023-03-28T14:14:34.076Z,99981.31
2023-03-28T14:17:39.366Z,99974.31
2023-03-28T14:20:43.885Z,99974.72
2023-03-28T14:23:59.020Z,100031.78
2023-03-28T14:27:13.388Z,99997.47
2023-03-28T14:30:30.868Z,99972.81
2023-03-28T14:33:37.282Z,99974.78
2023-03-28T14:37:06.478Z,99973.38
2023-03-28T14:40:24.398Z,99969.34
2023-03-28T14:43:29.837Z,99995.63
2023-03-28T14:46:33.516Z,99990.25
2023-03-28T14:49:37.620Z,99998.41
2023-03-28T14:52:44.772Z,100033.72
2023-03-28T14:55:49.919Z,100047.09
2023-03-28T14:58:57.588Z,100054.59
2023-03-28T15:02:04.420Z,100045.25
2023-03-28T15:05:27.944Z,100054.56
2023-03-28T15:08:51.001Z,100058.09
2023-03-28T15:12:15.276Z,100049.88
2023-03-28T15:15:48.607Z,100046.19
2023-03-28T15:19:21.121Z,100042.00
2023-03-28T15:22:28.233Z,100042.03
2023-03-28T15:25:32.008Z,100064.72
2023-03-28T15:28:35.703Z,100051.81
2023-03-28T15:31:40.283Z,100068.63
2023-03-28T15:34:55.789Z,100084.59
2023-03-28T15:38:22.953Z,100112.41
2023-03-28T15:41:46.096Z,100111.69
2023-03-28T15:44:57.795Z,100097.97
2023-03-28T15:48:00.849Z,100089.94
2023-03-28T15:51:06.678Z,100087.91
2023-03-28T15:54:23.819Z,100098.09
2023-03-28T15:57:29.470Z,100098.03
2023-03-28T16:00:47.697Z,100111.53
2023-03-28T16:03:52.533Z,100113.84
2023-03-28T16:07:10.137Z,100096.56
2023-03-28T16:10:16.235Z,100095.84
2023-03-28T16:13:21.045Z,100096.25
2023-03-28T16:16:29.526Z,100089.19
2023-03-28T16:19:34.991Z,100087.13
2023-03-28T16:22:38.335Z,100087.03
2023-03-28T16:25:42.632Z,100110.94
2023-03-28T16:28:45.891Z,100116.72
2023-03-28T16:31:49.138Z,100120.41
2023-03-28T16:34:52.428Z,100126.47
2023-03-28T16:37:55.733Z,100124.59
2023-03-28T16:40:59.008Z,100132.31
2023-03-28T16:44:01.848Z,100132.25
2023-03-28T16:47:05.720Z,100112.28
2023-03-28T16:50:09.626Z,100139.06
2023-03-28T16:53:12.730Z,100134.84
2023-03-28T16:56:18.496Z,100135.19
2023-03-28T16:59:22.049Z,100135.06
2023-03-28T17:02:24.988Z,100153.38
2023-03-28T17:05:28.228Z,100152.66
2023-03-28T17:08:31.249Z,100160.88
2023-03-28T17:11:34.835Z,100160.88
2023-03-28T17:14:37.653Z,100160.19
2023-03-28T17:17:40.728Z,100166.75
2023-03-28T17:20:43.375Z,100178.09
2023-03-28T17:23:49.130Z,100176.94
2023-03-28T17:26:51.789Z,100186.06
2023-03-28T17:29:54.787Z,100191.38
2023-03-28T17:32:57.602Z,100189.72
2023-03-28T17:36:01.284Z,100186.13
2023-03-28T17:39:04.521Z,100205.66
2023-03-28T17:42:07.549Z,100215.44
2023-03-28T17:45:10.784Z,100215.34
2023-03-28T17:48:13.762Z,100220.19
2023-03-28T17:51:16.738Z,100231.41
2023-03-28T17:54:19.760Z,100228.38
2023-03-28T17:57:22.550Z,100242.38
2023-03-28T18:00:25.793Z,100248.81
2023-03-28T18:03:28.904Z,100258.34
2023-03-28T18:06:33.344Z,100268.47
2023-03-28T18:09:36.607Z,100272.62
2023-03-28T18:12:39.389Z,100272.84
2023-03-28T18:15:42.381Z,100269.19
2023-03-28T18:18:45.168Z,100283.78
2023-03-28T18:21:48.205Z,100288.50
2023-03-28T18:24:51.180Z,100280.97
2023-03-28T18:27:54.174Z,100306.97
2023-03-28T18:31:09.227Z,100300.28
2023-03-28T18:34:12.206Z,100313.94
2023-03-28T18:37:14.959Z,100311.06
2023-03-28T18:40:18.493Z,100321.25
2023-03-28T18:43:21.572Z,100319.78
2023-03-28T18:46:29.881Z,100330.72
2023-03-28T18:49:32.938Z,100329.13
2023-03-28T18:52:36.095Z,100333.56
2023-03-28T18:55:41.576Z,100321.25
2023-03-28T18:58:46.112Z,100333.88
2023-03-28T19:01:51.751Z,100337.81
2023-03-28T19:04:55.020Z,100335.44
2023-03-28T19:07:59.214Z,100339.03
2023-03-28T19:11:09.015Z,100341.28
2023-03-28T19:14:11.975Z,100344.06
2023-03-28T19:17:15.708Z,100353.00
2023-03-28T19:20:19.765Z,100341.81
2023-03-28T19:23:24.447Z,100344.88
2023-03-28T19:26:27.299Z,100346.41
2023-03-28T19:29:32.060Z,100362.53
2023-03-28T19:32:34.850Z,100362.69
2023-03-28T19:35:39.435Z,100368.56
2023-03-28T19:38:42.423Z,100376.44
2023-03-28T19:41:45.417Z,100371.19
2023-03-28T19:44:48.358Z,100359.31
2023-03-28T19:47:51.906Z,100370.03
2023-03-28T19:50:54.769Z,100360.97
2023-03-28T19:53:59.931Z,100363.88
2023-03-28T19:57:02.934Z,100356.69
2023-03-28T20:00:08.508Z,100341.97
2023-03-28T20:03:16.014Z,100349.03
2023-03-28T20:06:21.278Z,100363.81
2023-03-28T20:09:24.338Z,100359.09
2023-03-28T20:12:27.290Z,100360.94
2023-03-28T20:15:30.149Z,100362.75
2023-03-28T20:18:33.764Z,100356.88
2023-03-28T20:21:36.511Z,100360.88
2023-03-28T20:24:39.464Z,100356.53
2023-03-28T20:27:42.099Z,100359.75
2023-03-28T20:30:45.972Z,100367.78
2023-03-28T20:33:49.051Z,100367.59
2023-03-28T20:36:52.059Z,100371.50
2023-03-28T20:39:55.245Z,100360.06
2023-03-28T20:43:01.853Z,100376.81
2023-03-28T20:46:04.870Z,100362.69
2023-03-28T20:49:07.954Z,100379.28
2023-03-28T20:52:10.949Z,100364.03
2023-03-28T20:55:15.024Z,100371.06
2023-03-28T20:58:17.764Z,100377.94
2023-03-28T21:01:25.370Z,100389.13
2023-03-28T21:04:28.573Z,100385.09
2023-03-28T21:07:31.925Z,100393.59
2023-03-28T21:10:36.513Z,100368.31
2023-03-28T21:13:39.730Z,100385.87
2023-03-28T21:16:42.472Z,100379.28
2023-03-28T21:19:46.690Z,100397.69
2023-03-28T21:22:49.482Z,100398.88
2023-03-28T21:25:53.396Z,100390.63
2023-03-28T21:28:56.483Z,100380.88
2023-03-28T21:31:59.554Z,100398.97
2023-03-28T21:35:04.189Z,100395.34
2023-03-28T21:38:07.539Z,100402.28
2023-03-28T21:41:11.458Z,100398.50
2023-03-28T21:44:15.588Z,100393.03
2023-03-28T21:47:18.280Z,100398.72
2023-03-28T21:50:21.244Z,100404.44
2023-03-28T21:53:23.953Z,100399.59
2023-03-28T21:56:27.220Z,100411.31
2023-03-28T21:59:29.916Z,100411.31
2023-03-28T22:02:33.297Z,100410.66
2023-03-28T22:05:42.819Z,100408.19
2023-03-28T22:08:48.897Z,100390.25
2023-03-28T22:11:52.695Z,100398.47
2023-03-28T22:14:55.280Z,100399.81
2023-03-28T22:17:58.456Z,100403.16
2023-03-28T22:21:02.626Z,100403.84
2023-03-28T22:24:12.829Z,100400.50
2023-03-28T22:27:15.541Z,100405.00
2023-03-28T22:30:19.014Z,100406.53
2023-03-28T22:33:23.656Z,100403.69
2023-03-28T22:36:27.131Z,100413.75
2023-03-28T22:39:29.826Z,100422.09
2023-03-28T22:42:32.978Z,100411.22
2023-03-28T22:45:35.786Z,100414.25
2023-03-28T22:48:39.392Z,100429.66
2023-03-28T22:51:48.997Z,100429.00
2023-03-28T22:54:53.035Z,100414.72
2023-03-28T22:57:55.827Z,100431.69
2023-03-28T23:00:58.903Z,100419.25
2023-03-28T23:04:01.726Z,100428.62
2023-03-28T23:07:04.635Z,100432.50
2023-03-28T23:10:12.104Z,100416.03
2023-03-28T23:13:15.419Z,100425.09
2023-03-28T23:16:18.343Z,100414.78
2023-03-28T23:19:22.486Z,100399.09
2023-03-28T23:22:25.152Z,100411.75
2023-03-28T23:25:28.621Z,100410.37
2023-03-28T23:28:31.222Z,100430.94
2023-03-28T23:31:34.221Z,100433.75
2023-03-28T23:34:37.514Z,100427.47
2023-03-28T23:37:40.632Z,100418.75
2023-03-28T23:40:46.806Z,100422.41
2023-03-28T23:43:49.858Z,100409.19
2023-03-28T23:46:53.105Z,100405.25
2023-03-28T23:49:56.189Z,100391.34
2023-03-28T23:52:58.942Z,100391.06
2023-03-28T23:56:03.537Z,100386.22
2023-03-28T23:59:06.758Z,100377.16
